Las Vegas, Nevada
Current Conditions -  °F | °C
As of 12:56 PM on Sunday 21 Dec 2014 (Local Time) from KLAS Reporting Station
Broken Clouds Broken Clouds  
Wind Chill: 55°   Ceiling: 25000
Heat Index: 55°   Visibility: 10mi
Dew Point: 38°   Wind: 3mph
Humidity: 53%   Direction: 190°S
Pressure: 30.06"   Gusts: NA
Location:  36.17°N, 115.13°W
Report Text: KLAS 212056Z 19003KT 10SM FEW100 BKN250 13/03 A3006 RMK AO2 SLP176 T01280033 58021 $
Loading
Personal Weather Stations






























Interactive Weather Map New forecast layout! Learn more

10-Day Weather Forecast

Advertisements
Track Severe Weather on mobile